aviador You're here:

LFBA Decoded Metar

AGEN in FRANCE
Report Time2018-06-17 23:30:00
UTC Time2018-06-17 23:36:07
Flight Rules vfr VFR
Wind270° at 04 kt
W.Decomp.*RWY 29: 3.8 kt HW 1.4 kt LCW
W.Rank270° ranks 4
Current wind is below 270° avg. (5.8)
Visibility9999 m
Phenomena:N/A
Clouds:N/A
Expected CloudBase > 1,200 ft AGL from Temp-Dew spread
CeilingNone
Temp15°C (ISA 0)
Dew Point12°C (82% RH)
AAT14.2°C
QNH1025 hPa
Density Alt26 ft
Elevation197 ft
Report Wrong Elevation
Raw Report
METAR LFBA 172330Z AUTO 27004KT CAVOK 15/12 Q1025=

Extra information for LFBA:More info

Metar Taf Metar & Taf Last 4 Metars F.Rules Stats Wind Profile Meteogram Temp Stats Airport Information Weather charts Add Link Nearby VenuesMetar ALERT Operation Metar Decoded Social comments